createdAt,value
2023-03-02T00:01:55.352Z,40.75
2023-03-02T00:04:48.420Z,49.03
2023-03-02T00:07:22.946Z,43.20
2023-03-02T00:09:52.087Z,41.47
2023-03-02T00:12:19.859Z,49.60
2023-03-02T00:14:47.551Z,42.30
2023-03-02T00:17:15.661Z,45.72
2023-03-02T00:19:45.089Z,48.28
2023-03-02T00:22:13.021Z,46.42
2023-03-02T00:24:41.260Z,50.40
2023-03-02T00:27:08.897Z,47.42
2023-03-02T00:29:36.843Z,48.88
2023-03-02T00:32:09.207Z,38.30
2023-03-02T00:34:39.216Z,44.90
2023-03-02T00:37:06.828Z,44.60
2023-03-02T00:39:34.667Z,47.90
2023-03-02T00:42:02.277Z,44.38
2023-03-02T00:44:30.064Z,51.72
2023-03-02T00:46:57.918Z,45.45
2023-03-02T00:49:25.960Z,48.28
2023-03-02T00:51:58.987Z,47.78
2023-03-02T00:54:26.658Z,47.55
2023-03-02T00:56:54.506Z,51.65
2023-03-02T00:59:28.329Z,43.42
2023-03-02T01:02:21.940Z,45.95
2023-03-02T01:04:50.792Z,40.97
2023-03-02T01:07:20.938Z,44.53
2023-03-02T01:09:48.974Z,46.25
2023-03-02T01:12:16.642Z,39.88
2023-03-02T01:14:47.783Z,45.58
2023-03-02T01:17:15.740Z,48.40
2023-03-02T01:19:43.501Z,50.20
2023-03-02T01:22:11.299Z,62.35
2023-03-02T01:24:43.699Z,49.42
2023-03-02T01:27:11.391Z,63.25
2023-03-02T01:29:38.934Z,54.20
2023-03-02T01:32:06.659Z,61.08
2023-03-02T01:34:34.353Z,61.08
2023-03-02T01:37:02.637Z,57.60
2023-03-02T01:39:30.622Z,56.30
2023-03-02T01:41:59.402Z,54.72
2023-03-02T01:44:50.375Z,41.10
2023-03-02T01:47:25.944Z,50.42
2023-03-02T01:50:19.344Z,46.90
2023-03-02T01:52:47.476Z,42.25
2023-03-02T01:55:17.964Z,44.88
2023-03-02T01:57:47.187Z,39.35
2023-03-02T02:00:19.546Z,42.80
2023-03-02T02:02:47.915Z,48.38
2023-03-02T02:05:23.636Z,41.97
2023-03-02T02:07:53.202Z,36.55
2023-03-02T02:10:22.700Z,42.42
2023-03-02T02:12:51.503Z,36.78
2023-03-02T02:15:19.107Z,43.65
2023-03-02T02:17:46.767Z,38.65
2023-03-02T02:20:24.266Z,32.65
2023-03-02T02:22:57.701Z,44.67
2023-03-02T02:25:40.991Z,40.50
2023-03-02T02:28:22.500Z,33.58
2023-03-02T02:30:52.201Z,41.63
2023-03-02T02:33:21.554Z,40.67
2023-03-02T02:35:49.174Z,43.50
2023-03-02T02:38:18.653Z,48.72
2023-03-02T02:40:54.638Z,42.22
2023-03-02T02:43:27.218Z,35.25
2023-03-02T02:45:56.247Z,37.17
2023-03-02T02:48:27.171Z,41.28
2023-03-02T02:51:00.683Z,40.17
2023-03-02T02:53:38.856Z,44.42
2023-03-02T02:56:07.410Z,46.88
2023-03-02T02:58:42.291Z,42.22
2023-03-02T03:01:18.095Z,43.35
2023-03-02T03:04:06.595Z,43.13
2023-03-02T03:06:44.686Z,41.90
2023-03-02T03:09:13.262Z,43.90
2023-03-02T03:11:55.486Z,48.00
2023-03-02T03:14:34.674Z,40.90
2023-03-02T03:17:02.470Z,42.60
2023-03-02T03:19:31.895Z,29.30
2023-03-02T03:22:02.127Z,50.95
2023-03-02T03:24:39.110Z,41.08
2023-03-02T03:27:07.501Z,51.47
2023-03-02T03:29:39.329Z,34.83
2023-03-02T03:32:10.524Z,45.63
2023-03-02T03:37:22.371Z,45.97
2023-03-02T03:39:50.873Z,48.70
2023-03-02T03:42:19.205Z,43.58
2023-03-02T03:44:47.589Z,34.97
2023-03-02T03:47:15.557Z,48.90
2023-03-02T03:49:43.657Z,43.00
2023-03-02T03:52:11.731Z,54.20
2023-03-02T03:54:40.010Z,42.13
2023-03-02T03:57:11.400Z,37.45
2023-03-02T03:59:39.597Z,39.58
2023-03-02T04:02:11.226Z,45.70
2023-03-02T04:04:42.689Z,49.17
2023-03-02T04:07:16.944Z,51.42
2023-03-02T04:09:47.628Z,48.45
2023-03-02T04:12:22.196Z,50.05
2023-03-02T04:17:20.868Z,56.42
2023-03-02T04:19:53.388Z,56.35
2023-03-02T04:22:21.523Z,47.83
2023-03-02T04:24:49.502Z,50.28
2023-03-02T04:27:17.614Z,48.47
2023-03-02T04:29:46.617Z,51.47
2023-03-02T04:32:17.477Z,47.33
2023-03-02T04:34:49.844Z,43.10
2023-03-02T04:37:17.518Z,56.15
2023-03-02T04:39:50.228Z,51.65
2023-03-02T04:42:21.207Z,52.42
2023-03-02T04:44:49.067Z,53.90
2023-03-02T04:47:16.697Z,110.10
2023-03-02T04:49:44.314Z,106.85
2023-03-02T04:52:13.331Z,81.70
2023-03-02T04:54:41.438Z,68.75
2023-03-02T04:57:10.162Z,58.97
2023-03-02T04:59:39.732Z,46.28
2023-03-02T05:02:07.536Z,53.80
2023-03-02T05:04:38.175Z,49.20
2023-03-02T05:07:07.030Z,54.60
2023-03-02T05:09:35.648Z,62.55
2023-03-02T05:12:03.636Z,64.25
2023-03-02T05:14:31.545Z,51.25
2023-03-02T05:16:59.762Z,44.58
2023-03-02T05:19:27.664Z,47.22
2023-03-02T05:21:56.930Z,47.03
2023-03-02T05:24:25.487Z,31.75
2023-03-02T05:26:54.619Z,27.77
2023-03-02T05:29:22.432Z,27.35
2023-03-02T05:31:50.415Z,40.15
2023-03-02T05:34:18.334Z,37.90
2023-03-02T05:36:50.032Z,27.63
2023-03-02T05:39:20.102Z,36.53
2023-03-02T05:41:47.959Z,41.15
2023-03-02T05:44:15.739Z,38.83
2023-03-02T05:46:45.028Z,30.85
2023-03-02T05:49:13.574Z,45.90
2023-03-02T05:51:41.347Z,45.60
2023-03-02T05:54:09.385Z,42.75
2023-03-02T05:56:37.193Z,34.58
2023-03-02T05:59:05.026Z,27.42
2023-03-02T06:01:33.234Z,35.97
2023-03-02T06:04:01.258Z,39.60
2023-03-02T06:06:29.549Z,43.15
2023-03-02T06:08:57.826Z,33.63
2023-03-02T06:11:25.520Z,27.38
2023-03-02T06:13:53.595Z,31.77
2023-03-02T06:16:21.851Z,23.98
2023-03-02T06:18:50.430Z,18.88
2023-03-02T06:21:18.946Z,26.67
2023-03-02T06:23:47.137Z,23.33
2023-03-02T06:26:14.902Z,21.40
2023-03-02T06:28:51.988Z,13.13
2023-03-02T06:31:21.988Z,17.73
2023-03-02T06:33:49.980Z,19.70
2023-03-02T06:36:18.793Z,23.15
2023-03-02T06:38:46.659Z,13.15
2023-03-02T06:41:14.537Z,22.08
2023-03-02T06:43:42.288Z,18.23
2023-03-02T06:46:10.061Z,13.15
2023-03-02T06:48:38.164Z,13.95
2023-03-02T06:51:12.828Z,17.73
2023-03-02T06:53:41.353Z,18.63
2023-03-02T06:56:13.286Z,14.25
2023-03-02T06:58:41.866Z,14.55
2023-03-02T07:04:29.694Z,15.90
2023-03-02T07:06:57.634Z,7.45
2023-03-02T07:12:32.756Z,13.52
2023-03-02T07:15:05.626Z,7.35
2023-03-02T07:17:35.567Z,20.08
2023-03-02T07:20:06.208Z,12.52
2023-03-02T07:22:36.749Z,13.23
2023-03-02T07:25:11.053Z,10.30
2023-03-02T07:27:49.839Z,11.57
2023-03-02T07:30:21.388Z,11.85
2023-03-02T07:32:49.441Z,17.02
2023-03-02T07:35:17.669Z,8.73
2023-03-02T07:37:45.510Z,12.38
2023-03-02T07:40:13.918Z,12.65
2023-03-02T07:42:43.075Z,6.72
2023-03-02T07:45:20.783Z,8.98
2023-03-02T07:47:48.758Z,13.68
2023-03-02T07:50:16.852Z,11.70
2023-03-02T07:52:48.341Z,8.48
2023-03-02T07:55:21.723Z,10.30
2023-03-02T07:57:55.115Z,6.80
2023-03-02T08:00:23.595Z,10.85
2023-03-02T08:05:31.338Z,11.07
2023-03-02T08:08:03.265Z,7.55
2023-03-02T08:10:38.714Z,8.15
2023-03-02T08:13:13.457Z,11.15
2023-03-02T08:15:47.538Z,14.60
2023-03-02T08:18:16.616Z,13.38
2023-03-02T08:20:51.300Z,7.63
2023-03-02T08:23:21.980Z,8.57
2023-03-02T08:25:53.271Z,13.27
2023-03-02T08:28:23.312Z,5.72
2023-03-02T08:31:00.064Z,9.73
2023-03-02T08:33:28.865Z,7.55
2023-03-02T08:36:02.096Z,6.55
2023-03-02T08:38:31.656Z,4.70
2023-03-02T08:40:59.474Z,8.68
2023-03-02T08:43:27.356Z,5.35
2023-03-02T08:45:58.130Z,9.82
2023-03-02T08:48:31.602Z,7.13
2023-03-02T08:51:29.200Z,9.30
2023-03-02T08:54:04.961Z,3.47
2023-03-02T08:56:35.826Z,11.88
2023-03-02T08:59:07.031Z,6.57
2023-03-02T09:01:36.780Z,11.32
2023-03-02T09:04:08.584Z,5.38
2023-03-02T09:06:40.960Z,3.40
2023-03-02T09:09:13.042Z,5.97
2023-03-02T09:11:58.919Z,7.38
2023-03-02T09:14:28.316Z,3.72
2023-03-02T09:17:16.739Z,7.72
2023-03-02T09:19:56.730Z,6.85
2023-03-02T09:22:43.003Z,8.25
2023-03-02T09:25:13.986Z,5.45
2023-03-02T09:27:48.989Z,6.68
2023-03-02T09:30:39.046Z,5.47
2023-03-02T09:33:08.209Z,7.10
2023-03-02T09:35:40.311Z,8.38
2023-03-02T09:38:14.276Z,14.80
2023-03-02T09:41:08.239Z,22.25
2023-03-02T09:43:40.708Z,21.98
2023-03-02T09:46:18.485Z,21.35
2023-03-02T09:49:21.665Z,8.25
2023-03-02T09:52:08.666Z,8.85
2023-03-02T09:54:38.238Z,7.82
2023-03-02T09:57:24.154Z,9.53
2023-03-02T10:00:20.524Z,6.38
2023-03-02T10:03:08.188Z,11.27
2023-03-02T10:05:54.398Z,15.35
2023-03-02T10:08:27.298Z,26.73
2023-03-02T10:11:13.490Z,5.70
2023-03-02T10:13:52.615Z,6.82
2023-03-02T10:16:30.335Z,6.65
2023-03-02T10:19:05.604Z,8.05
2023-03-02T10:21:40.099Z,13.35
2023-03-02T10:24:41.488Z,10.95
2023-03-02T10:27:20.864Z,13.80
2023-03-02T10:30:01.452Z,8.65
2023-03-02T10:32:52.666Z,10.65
2023-03-02T10:35:24.040Z,7.03
2023-03-02T10:37:55.495Z,8.35
2023-03-02T10:40:33.553Z,7.63
2023-03-02T10:43:33.614Z,8.05
2023-03-02T10:46:07.849Z,7.50
2023-03-02T10:48:51.860Z,8.10
2023-03-02T10:51:28.551Z,15.30
2023-03-02T10:54:29.023Z,24.83
2023-03-02T10:57:18.443Z,9.30
2023-03-02T10:59:47.464Z,17.52
2023-03-02T11:02:24.552Z,11.68
2023-03-02T11:04:59.549Z,10.43
2023-03-02T11:07:28.968Z,11.40
2023-03-02T11:13:59.440Z,12.45
2023-03-02T11:16:35.352Z,14.32
2023-03-02T11:19:38.257Z,13.65
2023-03-02T11:22:14.810Z,14.27
2023-03-02T11:24:52.396Z,18.35
2023-03-02T11:27:27.477Z,16.83
2023-03-02T11:30:17.262Z,20.55
2023-03-02T11:32:55.262Z,13.75
2023-03-02T11:36:06.810Z,14.85
2023-03-02T11:38:50.382Z,18.65
2023-03-02T11:41:27.436Z,9.48
2023-03-02T11:43:57.001Z,14.65
2023-03-02T11:46:30.829Z,21.85
2023-03-02T11:49:07.473Z,12.77
2023-03-02T11:51:56.672Z,18.65
2023-03-02T11:54:41.666Z,30.55
2023-03-02T11:57:19.819Z,11.27
2023-03-02T11:59:47.680Z,38.83
2023-03-02T12:02:17.133Z,37.13
2023-03-02T12:04:49.043Z,10.60
2023-03-02T12:07:25.858Z,11.52
2023-03-02T12:10:07.621Z,8.77
2023-03-02T12:12:44.680Z,9.82
2023-03-02T12:15:39.726Z,23.15
2023-03-02T12:18:23.078Z,9.52
2023-03-02T12:21:17.716Z,13.23
2023-03-02T12:23:49.095Z,9.98
2023-03-02T12:26:19.981Z,34.30
2023-03-02T12:29:10.719Z,20.45
2023-03-02T12:31:50.757Z,11.10
2023-03-02T12:34:25.042Z,21.90
2023-03-02T12:36:59.089Z,10.15
2023-03-02T12:39:39.190Z,9.25
2023-03-02T12:42:21.783Z,8.18
2023-03-02T12:45:07.803Z,4.13
2023-03-02T12:47:38.399Z,6.00
2023-03-02T12:50:09.426Z,14.43
2023-03-02T12:52:40.935Z,10.52
2023-03-02T12:55:19.527Z,9.15
2023-03-02T12:57:49.678Z,7.95
2023-03-02T13:00:22.959Z,6.90
2023-03-02T13:02:54.971Z,9.35
2023-03-02T13:05:27.440Z,8.57
2023-03-02T13:08:01.409Z,11.23
2023-03-02T13:10:36.294Z,7.38
2023-03-02T13:13:30.229Z,12.68
2023-03-02T13:16:11.963Z,8.52
2023-03-02T13:18:40.807Z,10.93
2023-03-02T13:21:10.804Z,9.82
2023-03-02T13:23:50.940Z,13.23
2023-03-02T13:26:31.681Z,10.85
2023-03-02T13:29:04.748Z,12.05
2023-03-02T13:31:37.639Z,16.83
2023-03-02T13:34:05.688Z,14.68
2023-03-02T13:36:38.744Z,21.80
2023-03-02T13:39:07.826Z,7.40
2023-03-02T13:46:47.676Z,15.02
2023-03-02T13:49:32.738Z,15.20
2023-03-02T13:52:08.338Z,11.60
2023-03-02T13:54:38.333Z,13.23
2023-03-02T13:57:06.168Z,14.43
2023-03-02T13:59:37.257Z,19.75
2023-03-02T14:02:19.941Z,17.13
2023-03-02T14:04:47.808Z,16.48
2023-03-02T14:07:20.845Z,17.13
2023-03-02T14:09:48.974Z,13.85
2023-03-02T14:12:29.740Z,10.15
2023-03-02T14:15:01.355Z,17.35
2023-03-02T14:17:29.585Z,25.20
2023-03-02T14:19:57.591Z,40.40
2023-03-02T14:22:26.681Z,39.95
2023-03-02T14:24:55.930Z,23.13
2023-03-02T14:27:24.836Z,20.77
2023-03-02T14:29:52.678Z,32.38
2023-03-02T14:32:22.135Z,25.15
2023-03-02T14:34:49.984Z,22.70
2023-03-02T14:37:18.859Z,13.18
2023-03-02T14:39:48.516Z,20.98
2023-03-02T14:42:17.395Z,22.88
2023-03-02T14:44:50.189Z,14.45
2023-03-02T14:47:19.750Z,17.70
2023-03-02T14:49:49.019Z,11.48
2023-03-02T14:52:34.959Z,12.05
2023-03-02T14:55:07.915Z,11.57
2023-03-02T14:57:38.740Z,14.65
2023-03-02T15:00:07.603Z,16.58
2023-03-02T15:02:36.058Z,13.20
2023-03-02T15:05:14.699Z,7.50
2023-03-02T15:07:44.355Z,9.97
2023-03-02T15:10:17.502Z,12.93
2023-03-02T15:12:45.710Z,8.88
2023-03-02T15:15:16.736Z,7.28
2023-03-02T15:17:45.023Z,17.02
2023-03-02T15:20:17.356Z,13.85
2023-03-02T15:22:48.055Z,19.60
2023-03-02T15:25:17.532Z,17.92
2023-03-02T15:27:47.491Z,20.70
2023-03-02T15:30:17.950Z,33.67
2023-03-02T15:32:45.987Z,21.80
2023-03-02T15:35:14.678Z,24.83
2023-03-02T15:37:45.716Z,20.25
2023-03-02T15:40:15.476Z,24.17
2023-03-02T15:42:43.986Z,20.50
2023-03-02T15:45:13.855Z,20.75
2023-03-02T15:47:42.998Z,27.00
2023-03-02T15:50:13.284Z,23.63
2023-03-02T15:52:42.676Z,22.70
2023-03-02T15:55:11.287Z,48.40
2023-03-02T15:57:40.389Z,353.33
2023-03-02T16:02:43.750Z,388.35
2023-03-02T16:05:15.451Z,241.63
2023-03-02T16:07:45.596Z,66.13
2023-03-02T16:10:17.462Z,78.95
2023-03-02T16:12:46.032Z,52.53
2023-03-02T16:15:15.055Z,22.90
2023-03-02T16:17:43.044Z,22.23
2023-03-02T16:20:12.016Z,21.13
2023-03-02T16:22:40.407Z,27.33
2023-03-02T16:25:12.130Z,18.60
2023-03-02T16:27:40.681Z,16.85
2023-03-02T16:30:14.952Z,14.55
2023-03-02T16:32:44.397Z,23.92
2023-03-02T16:35:14.752Z,16.65
2023-03-02T16:37:44.686Z,20.70
2023-03-02T16:40:13.236Z,20.70
2023-03-02T16:42:41.886Z,78.13
2023-03-02T16:45:10.441Z,59.00
2023-03-02T16:47:38.286Z,36.92
2023-03-02T16:50:07.071Z,129.55
2023-03-02T16:52:35.966Z,54.30
2023-03-02T16:55:04.618Z,58.10
2023-03-02T16:57:32.909Z,49.40
2023-03-02T17:00:00.805Z,36.15
2023-03-02T17:02:29.646Z,40.17
2023-03-02T17:05:03.335Z,41.60
2023-03-02T17:07:31.897Z,104.20
2023-03-02T17:10:00.676Z,43.38
2023-03-02T17:12:29.486Z,58.65
2023-03-02T17:14:59.374Z,72.22
2023-03-02T17:17:27.534Z,107.13
2023-03-02T17:19:55.897Z,90.93
2023-03-02T17:22:26.697Z,74.25
2023-03-02T17:24:54.943Z,111.47
2023-03-02T17:27:25.983Z,59.70
2023-03-02T17:29:54.660Z,108.82
2023-03-02T17:32:23.355Z,119.78
2023-03-02T17:34:52.601Z,126.93
2023-03-02T17:37:20.438Z,116.03
2023-03-02T17:39:52.543Z,102.10
2023-03-02T17:42:20.498Z,105.72
2023-03-02T17:44:48.369Z,122.40
2023-03-02T17:47:16.517Z,105.35
2023-03-02T17:49:45.939Z,119.85
2023-03-02T17:52:19.510Z,110.70
2023-03-02T17:54:47.884Z,85.25
2023-03-02T17:57:22.061Z,114.82
2023-03-02T17:59:52.886Z,92.32
2023-03-02T18:02:20.738Z,68.75
2023-03-02T18:04:49.452Z,101.68
2023-03-02T18:07:17.816Z,104.88
2023-03-02T18:09:46.263Z,96.85
2023-03-02T18:12:16.104Z,109.65
2023-03-02T18:14:44.690Z,88.20
2023-03-02T18:17:15.259Z,99.57
2023-03-02T18:19:43.367Z,86.83
2023-03-02T18:22:11.526Z,82.00
2023-03-02T18:24:39.711Z,91.13
2023-03-02T18:29:40.467Z,95.28
2023-03-02T18:32:08.575Z,92.65
2023-03-02T18:34:40.323Z,141.38
2023-03-02T18:37:08.228Z,96.78
2023-03-02T18:39:37.868Z,83.18
2023-03-02T18:42:07.023Z,98.20
2023-03-02T18:44:35.175Z,94.28
2023-03-02T18:47:04.088Z,93.38
2023-03-02T18:49:32.137Z,99.82
2023-03-02T18:52:07.027Z,91.78
2023-03-02T18:54:35.047Z,104.60
2023-03-02T18:57:03.800Z,96.05
2023-03-02T18:59:34.284Z,103.80
2023-03-02T19:02:08.519Z,98.13
2023-03-02T19:04:36.371Z,99.30
2023-03-02T19:07:09.260Z,86.97
2023-03-02T19:09:37.506Z,106.97
2023-03-02T19:12:09.623Z,112.68
2023-03-02T19:14:39.735Z,104.63
2023-03-02T19:17:07.709Z,104.10
2023-03-02T19:19:35.761Z,101.60
2023-03-02T19:22:06.572Z,97.70
2023-03-02T19:24:35.030Z,67.90
2023-03-02T19:27:03.120Z,95.38
2023-03-02T19:29:34.830Z,97.13
2023-03-02T19:32:02.758Z,120.72
2023-03-02T19:34:30.840Z,102.30
2023-03-02T19:36:58.824Z,102.95
2023-03-02T19:39:27.463Z,110.25
2023-03-02T19:41:56.039Z,129.82
2023-03-02T19:44:25.878Z,122.13
2023-03-02T19:46:53.698Z,130.18
2023-03-02T19:49:21.478Z,117.97
2023-03-02T19:51:50.362Z,126.25
2023-03-02T19:54:18.137Z,128.63
2023-03-02T19:56:53.299Z,127.88
2023-03-02T19:59:22.223Z,125.00
2023-03-02T20:01:51.584Z,115.43
2023-03-02T20:04:23.167Z,122.72
2023-03-02T20:06:51.098Z,125.00
2023-03-02T20:09:20.518Z,101.57
2023-03-02T20:11:50.916Z,91.97
2023-03-02T20:14:31.574Z,94.78
2023-03-02T20:17:02.571Z,86.00
2023-03-02T20:19:31.766Z,107.40
2023-03-02T20:21:59.624Z,101.75
2023-03-02T20:24:30.756Z,109.57
2023-03-02T20:26:58.682Z,116.18
2023-03-02T20:29:27.061Z,113.95
2023-03-02T20:31:55.005Z,94.10
2023-03-02T20:34:22.693Z,81.18
2023-03-02T20:36:50.372Z,77.35
2023-03-02T20:39:24.319Z,71.00
2023-03-02T20:41:52.345Z,77.60
2023-03-02T20:44:20.742Z,74.97
2023-03-02T20:46:54.233Z,81.10
2023-03-02T20:49:23.707Z,87.07
2023-03-02T20:51:54.823Z,81.15
2023-03-02T20:54:24.558Z,95.00
2023-03-02T20:56:52.244Z,121.95
2023-03-02T20:59:21.643Z,122.45
2023-03-02T21:01:49.920Z,119.15
2023-03-02T21:04:17.879Z,125.80
2023-03-02T21:06:47.305Z,125.03
2023-03-02T21:09:15.577Z,163.10
2023-03-02T21:11:44.970Z,179.43
2023-03-02T21:14:16.269Z,123.55
2023-03-02T21:16:44.347Z,161.82
2023-03-02T21:19:18.203Z,113.95
2023-03-02T21:21:46.429Z,153.50
2023-03-02T21:24:18.453Z,138.60
2023-03-02T21:26:46.970Z,144.55
2023-03-02T21:29:15.136Z,129.68
2023-03-02T21:31:43.990Z,116.18
2023-03-02T21:34:12.675Z,110.50
2023-03-02T21:36:40.688Z,111.35
2023-03-02T21:39:08.545Z,109.32
2023-03-02T21:41:36.441Z,90.40
2023-03-02T21:44:05.798Z,110.63
2023-03-02T21:46:34.360Z,109.40
2023-03-02T21:49:02.302Z,99.28
2023-03-02T21:51:30.439Z,120.07
2023-03-02T21:53:58.164Z,127.55
2023-03-02T21:56:25.916Z,126.03
2023-03-02T21:58:59.887Z,155.02
2023-03-02T22:01:29.881Z,157.82
2023-03-02T22:03:57.564Z,138.73
2023-03-02T22:06:26.981Z,117.10
2023-03-02T22:08:55.960Z,131.05
2023-03-02T22:11:33.132Z,167.77
2023-03-02T22:14:02.164Z,165.68
2023-03-02T22:16:38.737Z,155.05
2023-03-02T22:19:31.376Z,112.68
2023-03-02T22:22:00.327Z,108.93
2023-03-02T22:24:33.815Z,109.97
2023-03-02T22:27:20.330Z,114.18
2023-03-02T22:29:48.846Z,125.93
2023-03-02T22:32:21.429Z,112.70
2023-03-02T22:34:53.220Z,105.78
2023-03-02T22:37:26.381Z,119.75
2023-03-02T22:39:55.687Z,139.57
2023-03-02T22:42:27.291Z,124.68
2023-03-02T22:45:14.971Z,126.45
2023-03-02T22:47:44.004Z,113.20
2023-03-02T22:50:24.920Z,87.43
2023-03-02T22:52:53.288Z,74.75
2023-03-02T22:55:27.263Z,76.47
2023-03-02T22:57:57.163Z,78.07
2023-03-02T23:00:33.934Z,64.50
2023-03-02T23:03:20.321Z,60.03
2023-03-02T23:05:51.117Z,50.30
2023-03-02T23:08:25.351Z,50.20
2023-03-02T23:10:55.116Z,52.55
2023-03-02T23:13:26.189Z,50.33
2023-03-02T23:15:55.494Z,44.08
2023-03-02T23:18:27.426Z,44.75
2023-03-02T23:20:55.228Z,43.20
2023-03-02T23:23:24.474Z,38.45
2023-03-02T23:25:52.193Z,45.30
2023-03-02T23:28:19.852Z,43.17
2023-03-02T23:30:48.124Z,44.30
2023-03-02T23:33:15.963Z,48.85
2023-03-02T23:35:43.733Z,35.47
2023-03-02T23:38:11.602Z,50.53
2023-03-02T23:40:41.764Z,43.17
2023-03-02T23:43:13.708Z,47.35
2023-03-02T23:45:42.425Z,39.90
2023-03-02T23:48:11.321Z,35.95
2023-03-02T23:50:39.629Z,43.58
2023-03-02T23:53:07.326Z,40.15
2023-03-02T23:55:35.329Z,42.83
2023-03-02T23:58:02.989Z,44.05
